createdAt,value
2019-04-05T00:00:34.860Z,14.27
2019-04-05T00:03:04.209Z,14.27
2019-04-05T00:05:33.622Z,13.80
2019-04-05T00:08:02.985Z,14.83
2019-04-05T00:10:32.307Z,13.40
2019-04-05T00:13:01.599Z,13.70
2019-04-05T00:15:31.297Z,14.20
2019-04-05T00:18:01.104Z,12.07
2019-04-05T00:20:30.510Z,13.77
2019-04-05T00:23:00.373Z,13.33
2019-04-05T00:25:29.731Z,12.10
2019-04-05T00:27:59.488Z,14.07
2019-04-05T00:30:28.807Z,13.93
2019-04-05T00:32:58.140Z,13.70
2019-04-05T00:35:27.641Z,12.07
2019-04-05T00:37:56.942Z,15.17
2019-04-05T00:40:26.345Z,13.40
2019-04-05T00:42:55.710Z,13.70
2019-04-05T00:45:28.517Z,14.10
2019-04-05T00:47:56.085Z,13.83
2019-04-05T00:50:25.583Z,13.50
2019-04-05T00:52:54.830Z,12.40
2019-04-05T00:55:24.158Z,13.80
2019-04-05T00:57:55.798Z,12.70
2019-04-05T01:00:28.368Z,12.77
2019-04-05T01:02:57.690Z,14.17
2019-04-05T01:05:27.397Z,11.93
2019-04-05T01:07:56.963Z,12.57
2019-04-05T01:10:26.777Z,14.47
2019-04-05T01:12:56.523Z,14.07
2019-04-05T01:15:25.874Z,13.33
2019-04-05T01:17:55.514Z,12.67
2019-04-05T01:20:26.765Z,12.93
2019-04-05T01:22:57.756Z,12.50
2019-04-05T01:25:27.725Z,14.20
2019-04-05T01:27:57.052Z,14.00
2019-04-05T01:30:26.332Z,12.10
2019-04-05T01:32:55.635Z,14.07
2019-04-05T01:35:26.340Z,12.37
2019-04-05T01:37:56.422Z,11.57
2019-04-05T01:40:28.428Z,12.57
2019-04-05T01:42:58.576Z,12.33
2019-04-05T01:45:27.871Z,14.20
2019-04-05T01:47:57.169Z,12.27
2019-04-05T01:50:26.523Z,12.93
2019-04-05T01:52:55.849Z,12.70
2019-04-05T01:55:25.165Z,11.80
2019-04-05T01:57:54.471Z,12.60
2019-04-05T02:00:23.793Z,12.57
2019-04-05T02:02:53.428Z,12.00
2019-04-05T02:05:22.714Z,12.53
2019-04-05T02:07:52.051Z,12.67
2019-04-05T02:10:21.417Z,11.27
2019-04-05T02:12:50.704Z,10.90
2019-04-05T02:15:30.191Z,13.20
2019-04-05T02:17:59.828Z,12.00
2019-04-05T02:20:29.408Z,12.63
2019-04-05T02:22:58.788Z,11.20
2019-04-05T02:25:28.117Z,12.10
2019-04-05T02:27:57.780Z,11.03
2019-04-05T02:30:27.654Z,10.53
2019-04-05T02:32:57.662Z,11.40
2019-04-05T02:35:27.638Z,11.47
2019-04-05T02:37:56.974Z,11.83
2019-04-05T02:40:28.727Z,11.87
2019-04-05T02:43:01.245Z,11.50
2019-04-05T02:45:34.527Z,11.00
2019-04-05T02:48:07.216Z,12.07
2019-04-05T02:50:39.590Z,11.47
2019-04-05T02:53:11.471Z,12.60
2019-04-05T02:55:42.963Z,11.80
2019-04-05T02:58:14.094Z,11.47
2019-04-05T03:00:44.451Z,11.47
2019-04-05T03:03:14.661Z,11.30
2019-04-05T03:05:46.490Z,10.70
2019-04-05T03:08:17.569Z,9.90
2019-04-05T03:11:03.539Z,11.87
2019-04-05T03:13:39.135Z,12.23
2019-04-05T03:16:17.545Z,11.97
2019-04-05T03:18:51.241Z,11.43
2019-04-05T03:21:23.734Z,11.30
2019-04-05T03:23:55.415Z,9.90
2019-04-05T03:26:27.742Z,12.03
2019-04-05T03:28:59.480Z,10.63
2019-04-05T03:31:28.796Z,10.40
2019-04-05T03:33:58.846Z,11.03
2019-04-05T03:36:29.285Z,10.53
2019-04-05T03:38:59.041Z,11.37
2019-04-05T03:41:28.681Z,10.10
2019-04-05T03:43:58.176Z,10.33
2019-04-05T03:46:27.843Z,12.37
2019-04-05T03:48:57.513Z,10.33
2019-04-05T03:51:27.255Z,12.07
2019-04-05T03:53:56.717Z,9.67
2019-04-05T03:56:26.440Z,11.00
2019-04-05T03:58:56.021Z,11.00
2019-04-05T04:01:25.589Z,10.30
2019-04-05T04:03:55.055Z,9.90
2019-04-05T04:06:24.944Z,10.70
2019-04-05T04:08:54.529Z,10.80
2019-04-05T04:11:24.177Z,10.63
2019-04-05T04:13:53.725Z,9.93
2019-04-05T04:16:23.785Z,13.17
2019-04-05T04:18:53.154Z,9.70
2019-04-05T04:21:29.933Z,11.40
2019-04-05T04:24:00.790Z,10.20
2019-04-05T04:26:31.612Z,10.67
2019-04-05T04:29:00.936Z,10.63
2019-04-05T04:31:30.904Z,10.53
2019-04-05T04:34:00.331Z,10.20
2019-04-05T04:36:29.770Z,12.10
2019-04-05T04:38:59.392Z,10.80
2019-04-05T04:41:31.861Z,10.10
2019-04-05T04:44:00.835Z,10.17
2019-04-05T04:46:30.236Z,11.17
2019-04-05T04:49:00.531Z,9.97
2019-04-05T04:51:31.145Z,10.97
2019-04-05T04:54:00.974Z,11.50
2019-04-05T04:56:30.353Z,11.83
2019-04-05T04:58:59.712Z,11.17
2019-04-05T05:01:29.064Z,10.73
2019-04-05T05:04:08.178Z,11.80
2019-04-05T05:06:36.897Z,12.90
2019-04-05T05:09:07.779Z,16.40
2019-04-05T05:11:37.634Z,11.90
2019-04-05T05:14:07.310Z,10.93
2019-04-05T05:16:36.598Z,12.50
2019-04-05T05:19:05.869Z,11.50
2019-04-05T05:21:35.173Z,12.30
2019-04-05T05:24:05.068Z,11.33
2019-04-05T05:26:34.499Z,12.03
2019-04-05T05:29:04.329Z,10.30
2019-04-05T05:31:33.690Z,11.43
2019-04-05T05:34:05.965Z,10.93
2019-04-05T05:36:35.797Z,11.97
2019-04-05T05:39:07.776Z,10.87
2019-04-05T05:41:37.496Z,10.50
2019-04-05T05:44:06.951Z,9.80
2019-04-05T05:46:36.421Z,12.00
2019-04-05T05:49:05.709Z,10.90
2019-04-05T05:51:35.172Z,10.40
2019-04-05T05:54:04.670Z,12.30
2019-04-05T05:56:34.016Z,13.67
2019-04-05T05:59:03.414Z,11.70
2019-04-05T06:01:32.860Z,9.67
2019-04-05T06:04:02.590Z,12.33
2019-04-05T06:06:31.895Z,12.00
2019-04-05T06:09:01.232Z,11.90
2019-04-05T06:11:30.539Z,13.07
2019-04-05T06:14:00.830Z,11.60
2019-04-05T06:16:30.198Z,14.70
2019-04-05T06:18:59.514Z,12.80
2019-04-05T06:21:29.023Z,12.27
2019-04-05T06:23:58.538Z,12.50
2019-04-05T06:26:27.817Z,12.77
2019-04-05T06:28:57.261Z,12.73
2019-04-05T06:31:26.615Z,14.40
2019-04-05T06:33:57.755Z,13.70
2019-04-05T06:36:27.142Z,13.63
2019-04-05T06:38:57.145Z,12.53
2019-04-05T06:41:26.548Z,13.67
2019-04-05T06:43:55.886Z,13.77
2019-04-05T06:46:25.651Z,12.93
2019-04-05T06:48:55.014Z,12.20
2019-04-05T06:51:25.333Z,15.17
2019-04-05T06:53:54.717Z,13.97
2019-04-05T06:56:24.061Z,13.47
2019-04-05T06:58:53.420Z,14.83
2019-04-05T07:01:23.357Z,12.20
2019-04-05T07:03:55.277Z,13.13
2019-04-05T07:06:24.932Z,12.87
2019-04-05T07:08:54.457Z,13.67
2019-04-05T07:11:23.782Z,14.77
2019-04-05T07:13:53.207Z,13.47
2019-04-05T07:16:22.528Z,14.97
2019-04-05T07:18:51.975Z,13.17
2019-04-05T07:21:21.715Z,12.70
2019-04-05T07:23:51.535Z,12.13
2019-04-05T07:26:21.229Z,12.57
2019-04-05T07:28:50.686Z,12.67
2019-04-05T07:31:20.108Z,13.20
2019-04-05T07:33:49.630Z,12.23
2019-04-05T07:36:19.719Z,13.83
2019-04-05T07:38:48.964Z,13.23
2019-04-05T07:41:18.361Z,13.93
2019-04-05T07:43:47.831Z,12.00
2019-04-05T07:46:17.155Z,13.40
2019-04-05T07:48:46.561Z,13.20
2019-04-05T07:51:16.039Z,12.73
2019-04-05T07:53:45.445Z,13.80
2019-04-05T07:56:14.871Z,12.67
2019-04-05T07:58:44.189Z,13.43
2019-04-05T08:01:14.362Z,14.03
2019-04-05T08:03:43.733Z,15.77
2019-04-05T08:06:13.269Z,17.07
2019-04-05T08:09:07.246Z,15.03
2019-04-05T08:11:37.255Z,16.20
2019-04-05T08:14:07.138Z,16.17
2019-04-05T08:16:39.263Z,17.63
2019-04-05T08:19:08.852Z,22.13
2019-04-05T08:21:38.156Z,25.40
2019-04-05T08:24:08.026Z,24.43
2019-04-05T08:26:37.428Z,21.53
2019-04-05T08:29:07.879Z,22.10
2019-04-05T08:31:37.173Z,23.73
2019-04-05T08:34:06.603Z,21.30
2019-04-05T08:36:35.948Z,23.57
2019-04-05T08:39:10.198Z,25.03
2019-04-05T08:41:39.592Z,26.20
2019-04-05T08:44:10.877Z,26.80
2019-04-05T08:46:40.207Z,28.83
2019-04-05T08:49:11.739Z,26.87
2019-04-05T08:51:40.690Z,30.23
2019-04-05T08:54:10.094Z,27.17
2019-04-05T08:56:39.448Z,28.63
2019-04-05T08:59:08.860Z,26.90
2019-04-05T09:01:38.242Z,29.17
2019-04-05T09:04:07.593Z,26.60
2019-04-05T09:06:37.301Z,22.83
2019-04-05T09:09:08.060Z,17.53
2019-04-05T09:11:37.437Z,16.60
2019-04-05T09:14:06.825Z,19.97
2019-04-05T09:16:36.178Z,20.63
2019-04-05T09:19:05.498Z,19.83
2019-04-05T09:21:34.788Z,18.67
2019-04-05T09:24:04.304Z,20.97
2019-04-05T09:26:35.436Z,18.17
2019-04-05T09:29:04.841Z,17.30
2019-04-05T09:31:34.401Z,19.73
2019-04-05T09:34:05.328Z,12.30
2019-04-05T09:36:34.701Z,14.40
2019-04-05T09:39:07.161Z,16.33
2019-04-05T09:41:36.458Z,16.90
2019-04-05T09:44:05.847Z,19.90
2019-04-05T09:46:45.865Z,24.30
2019-04-05T09:49:06.475Z,18.10
2019-04-05T09:51:35.752Z,20.70
2019-04-05T09:54:05.317Z,18.80
2019-04-05T09:56:34.662Z,18.67
2019-04-05T09:59:04.306Z,19.87
2019-04-05T10:01:33.634Z,20.43
2019-04-05T10:04:02.991Z,19.73
2019-04-05T10:06:32.320Z,19.97
2019-04-05T10:09:01.755Z,19.80
2019-04-05T10:11:31.205Z,22.30
2019-04-05T10:14:00.539Z,21.47
2019-04-05T10:16:29.917Z,20.83
2019-04-05T10:18:59.358Z,19.57
2019-04-05T10:21:28.668Z,25.70
2019-04-05T10:23:58.020Z,21.07
2019-04-05T10:26:27.304Z,22.57
2019-04-05T10:28:56.665Z,23.47
2019-04-05T10:31:25.956Z,23.50
2019-04-05T10:33:55.263Z,22.90
2019-04-05T10:36:24.602Z,25.90
2019-04-05T10:38:53.969Z,25.67
2019-04-05T10:41:23.299Z,23.33
2019-04-05T10:43:53.757Z,21.37
2019-04-05T10:46:23.106Z,26.43
2019-04-05T10:48:52.402Z,27.20
2019-04-05T10:51:24.947Z,23.47
2019-04-05T10:53:54.284Z,26.83
2019-04-05T10:56:23.621Z,24.47
2019-04-05T10:58:52.901Z,25.63
2019-04-05T11:01:22.190Z,24.53
2019-04-05T11:03:51.548Z,26.60
2019-04-05T11:06:20.873Z,28.23
2019-04-05T11:08:50.182Z,29.70
2019-04-05T11:11:19.889Z,32.00
2019-04-05T11:13:49.234Z,30.00
2019-04-05T11:16:22.257Z,31.87
2019-04-05T11:18:52.128Z,28.80
2019-04-05T11:21:21.610Z,28.67
2019-04-05T11:23:51.049Z,29.80
2019-04-05T11:26:21.790Z,27.30
2019-04-05T11:28:51.446Z,27.50
2019-04-05T11:31:22.955Z,25.17
2019-04-05T11:33:54.996Z,23.60
2019-04-05T11:36:25.552Z,21.73
2019-04-05T11:38:55.163Z,21.30
2019-04-05T11:41:26.638Z,23.87
2019-04-05T11:43:58.519Z,26.00
2019-04-05T11:46:33.935Z,23.10
2019-04-05T11:49:03.851Z,22.37
2019-04-05T11:51:33.852Z,19.67
2019-04-05T11:54:03.249Z,20.70
2019-04-05T11:56:32.681Z,25.10
2019-04-05T11:59:03.582Z,23.03
2019-04-05T12:01:41.114Z,21.67
2019-04-05T12:04:10.527Z,20.07
2019-04-05T12:06:39.850Z,22.77
2019-04-05T12:09:09.664Z,20.80
2019-04-05T12:11:39.418Z,19.47
2019-04-05T12:14:08.817Z,19.20
2019-04-05T12:16:38.223Z,20.00
2019-04-05T12:19:07.575Z,18.97
2019-04-05T12:21:36.805Z,18.17
2019-04-05T12:24:06.188Z,16.97
2019-04-05T12:26:35.507Z,18.50
2019-04-05T12:29:04.931Z,17.23
2019-04-05T12:31:43.142Z,17.73
2019-04-05T12:34:13.051Z,16.43
2019-04-05T12:36:43.608Z,17.57
2019-04-05T12:39:13.867Z,15.87
2019-04-05T12:41:44.872Z,17.17
2019-04-05T12:44:15.912Z,16.80
2019-04-05T12:46:45.901Z,15.03
2019-04-05T12:49:15.832Z,16.13
2019-04-05T12:51:45.563Z,16.57
2019-04-05T12:54:18.831Z,15.67
2019-04-05T12:56:48.179Z,14.80
2019-04-05T12:59:17.571Z,15.57
2019-04-05T13:01:47.004Z,15.80
2019-04-05T13:04:16.388Z,14.33
2019-04-05T13:06:45.848Z,13.80
2019-04-05T13:09:15.174Z,14.77
2019-04-05T13:11:44.582Z,14.43
2019-04-05T13:14:13.887Z,16.07
2019-04-05T13:16:44.573Z,16.83
2019-04-05T13:19:13.933Z,14.53
2019-04-05T13:21:43.288Z,15.63
2019-04-05T13:24:12.682Z,15.80
2019-04-05T13:26:42.687Z,17.13
2019-04-05T13:29:12.246Z,14.77
2019-04-05T13:31:41.630Z,18.30
2019-04-05T13:34:10.938Z,17.03
2019-04-05T13:36:40.233Z,16.77
2019-04-05T13:39:10.025Z,18.60
2019-04-05T13:41:39.423Z,19.37
2019-04-05T13:44:09.233Z,19.43
2019-04-05T13:46:39.238Z,21.17
2019-04-05T13:49:10.606Z,21.70
2019-04-05T13:51:42.014Z,19.97
2019-04-05T13:54:11.410Z,22.20
2019-04-05T13:56:41.445Z,22.40
2019-04-05T13:59:11.189Z,23.30
2019-04-05T14:01:40.654Z,21.67
2019-04-05T14:04:10.074Z,21.30
2019-04-05T14:06:39.354Z,21.60
2019-04-05T14:09:10.483Z,22.53
2019-04-05T14:11:40.208Z,22.43
2019-04-05T14:14:11.831Z,24.70
2019-04-05T14:16:42.550Z,20.57
2019-04-05T14:19:11.542Z,20.77
2019-04-05T14:21:47.292Z,21.07
2019-04-05T14:24:13.016Z,20.63
2019-04-05T14:26:43.699Z,20.20
2019-04-05T14:29:13.190Z,22.67
2019-04-05T14:31:43.545Z,21.20
2019-04-05T14:34:12.850Z,22.23
2019-04-05T14:36:42.251Z,21.47
2019-04-05T14:39:11.745Z,20.17
2019-04-05T14:41:41.189Z,19.60
2019-04-05T14:44:14.487Z,22.00
2019-04-05T14:46:47.646Z,22.10
2019-04-05T14:49:17.157Z,20.53
2019-04-05T14:51:53.693Z,18.33
2019-04-05T14:54:18.178Z,19.50
2019-04-05T14:56:52.080Z,19.33
2019-04-05T14:59:20.742Z,19.10
2019-04-05T15:01:50.066Z,18.33
2019-04-05T15:04:19.429Z,18.63
2019-04-05T15:06:50.731Z,18.53
2019-04-05T15:09:24.834Z,20.77
2019-04-05T15:11:50.910Z,18.07
2019-04-05T15:14:20.357Z,17.33
2019-04-05T15:16:49.670Z,16.13
2019-04-05T15:19:19.016Z,16.57
2019-04-05T15:21:48.741Z,17.60
2019-04-05T15:24:19.015Z,17.50
2019-04-05T15:26:49.464Z,16.87
2019-04-05T15:29:19.403Z,17.13
2019-04-05T15:31:48.785Z,17.10
2019-04-05T15:34:18.166Z,15.73
2019-04-05T15:36:47.947Z,17.93
2019-04-05T15:39:17.242Z,18.20
2019-04-05T15:41:46.699Z,15.40
2019-04-05T15:44:16.005Z,16.50
2019-04-05T15:46:45.744Z,15.80
2019-04-05T15:49:15.148Z,16.73
2019-04-05T15:51:44.502Z,15.60
2019-04-05T15:54:14.874Z,13.97
2019-04-05T15:56:44.233Z,15.70
2019-04-05T15:59:13.538Z,15.00
2019-04-05T16:01:43.228Z,15.63
2019-04-05T16:04:12.724Z,15.13
2019-04-05T16:06:42.144Z,16.67
2019-04-05T16:09:15.012Z,17.33
2019-04-05T16:11:44.502Z,16.93
2019-04-05T16:14:13.976Z,17.50
2019-04-05T16:16:43.584Z,14.87
2019-04-05T16:19:13.005Z,16.50
2019-04-05T16:21:42.348Z,15.43
2019-04-05T16:24:11.748Z,14.30
2019-04-05T16:26:41.225Z,16.33
2019-04-05T16:29:10.860Z,15.97
2019-04-05T16:31:40.724Z,17.20
2019-04-05T16:34:10.089Z,17.80
2019-04-05T16:36:39.452Z,19.87
2019-04-05T16:39:13.354Z,16.73
2019-04-05T16:41:42.949Z,18.53
2019-04-05T16:44:12.247Z,17.33
2019-04-05T16:46:41.515Z,15.80
2019-04-05T16:49:10.817Z,18.40
2019-04-05T16:51:40.199Z,17.50
2019-04-05T16:54:09.785Z,17.47
2019-04-05T16:56:39.076Z,15.93
2019-04-05T16:59:08.357Z,17.20
2019-04-05T17:01:38.044Z,16.97
2019-04-05T17:04:07.752Z,13.83
2019-04-05T17:06:37.136Z,14.90
2019-04-05T17:09:08.344Z,16.53
2019-04-05T17:11:37.737Z,16.20
2019-04-05T17:14:07.041Z,16.20
2019-04-05T17:16:36.325Z,18.40
2019-04-05T17:19:05.741Z,16.10
2019-04-05T17:21:35.029Z,16.43
2019-04-05T17:24:04.741Z,16.10
2019-04-05T17:26:34.049Z,15.73
2019-04-05T17:29:03.417Z,17.77
2019-04-05T17:31:32.684Z,17.33
2019-04-05T17:34:01.998Z,17.67
2019-04-05T17:36:31.705Z,18.30
2019-04-05T17:39:01.024Z,17.77
2019-04-05T17:41:30.352Z,16.57
2019-04-05T17:43:59.649Z,18.10
2019-04-05T17:46:28.953Z,16.73
2019-04-05T17:48:58.621Z,17.37
2019-04-05T17:51:28.058Z,19.13
2019-04-05T17:53:57.747Z,16.57
2019-04-05T17:56:27.049Z,17.20
2019-04-05T17:58:56.666Z,17.00
2019-04-05T18:01:26.143Z,15.13
2019-04-05T18:03:55.456Z,17.73
2019-04-05T18:06:24.812Z,14.60
2019-04-05T18:08:54.412Z,15.90
2019-04-05T18:11:23.766Z,16.00
2019-04-05T18:13:53.286Z,16.97
2019-04-05T18:16:22.826Z,15.80
2019-04-05T18:18:52.195Z,14.60
2019-04-05T18:21:21.573Z,17.37
2019-04-05T18:23:50.858Z,16.73
2019-04-05T18:26:20.313Z,17.37
2019-04-05T18:28:49.676Z,17.00
2019-04-05T18:31:19.138Z,17.50
2019-04-05T18:33:48.587Z,19.23
2019-04-05T18:36:18.241Z,17.17
2019-04-05T18:38:47.625Z,17.23
2019-04-05T18:41:16.957Z,16.67
2019-04-05T18:43:46.359Z,18.27
2019-04-05T18:46:15.685Z,17.40
2019-04-05T18:48:44.953Z,17.80
2019-04-05T18:51:14.283Z,18.27
2019-04-05T18:53:43.614Z,17.90
2019-04-05T18:56:12.912Z,17.33
2019-04-05T18:58:45.876Z,19.40
2019-04-05T19:01:15.455Z,19.10
2019-04-05T19:03:44.907Z,19.80
2019-04-05T19:06:15.666Z,17.57
2019-04-05T19:08:45.320Z,18.57
2019-04-05T19:11:14.924Z,18.73
2019-04-05T19:14:00.381Z,19.80
2019-04-05T19:16:20.743Z,18.03
2019-04-05T19:18:53.510Z,19.70
2019-04-05T19:21:22.884Z,20.57
2019-04-05T19:23:52.465Z,21.40
2019-04-05T19:26:21.837Z,21.87
2019-04-05T19:28:51.176Z,20.20
2019-04-05T19:48:57.596Z,21.60
2019-04-05T19:51:26.879Z,19.77
2019-04-05T19:54:01.481Z,20.30
2019-04-05T19:56:27.360Z,20.07
2019-04-05T19:58:56.661Z,20.03
2019-04-05T20:01:26.000Z,22.77
2019-04-05T20:03:55.689Z,19.60
2019-04-05T20:06:25.037Z,20.83
2019-04-05T20:08:54.352Z,21.77
2019-04-05T20:11:23.678Z,19.90
2019-04-05T20:13:53.011Z,20.50
2019-04-05T20:16:22.428Z,21.83
2019-04-05T20:18:52.145Z,21.87
2019-04-05T20:21:21.420Z,22.50
2019-04-05T20:23:50.716Z,19.80
2019-04-05T20:26:20.328Z,19.97
2019-04-05T20:28:49.657Z,23.37
2019-04-05T20:31:18.954Z,21.00
2019-04-05T20:33:48.268Z,20.63
2019-04-05T20:36:17.566Z,22.40
2019-04-05T20:38:46.894Z,22.33
2019-04-05T20:41:16.212Z,20.73
2019-04-05T20:43:45.809Z,20.00
2019-04-05T20:46:15.109Z,20.47
2019-04-05T20:48:44.384Z,23.30
2019-04-05T20:51:13.677Z,21.63
2019-04-05T20:53:43.332Z,20.13
2019-04-05T20:56:12.632Z,19.07
2019-04-05T20:58:41.906Z,21.87
2019-04-05T21:01:11.215Z,20.93
2019-04-05T21:03:40.601Z,21.70
2019-04-05T21:06:10.252Z,20.00
2019-04-05T21:08:39.541Z,21.70
2019-04-05T21:11:08.856Z,20.60
2019-04-05T21:13:38.245Z,23.13
2019-04-05T21:16:07.528Z,21.67
2019-04-05T21:18:36.732Z,21.80
2019-04-05T21:21:06.425Z,20.17
2019-04-05T21:23:35.721Z,22.60
2019-04-05T21:26:05.087Z,20.00
2019-04-05T21:28:34.969Z,21.23
2019-04-05T21:31:04.323Z,21.23
2019-04-05T21:33:33.728Z,20.50
2019-04-05T21:36:03.104Z,21.77
2019-04-05T21:38:32.705Z,24.43
2019-04-05T21:41:02.413Z,21.33
2019-04-05T21:43:31.708Z,25.07
2019-04-05T21:46:01.060Z,22.60
2019-04-05T21:48:30.807Z,23.57
2019-04-05T21:51:00.167Z,21.57
2019-04-05T21:53:29.813Z,21.33
2019-04-05T21:55:59.148Z,24.60
2019-04-05T21:58:28.427Z,23.93
2019-04-05T22:01:03.471Z,25.40
2019-04-05T22:03:32.763Z,23.30
2019-04-05T22:06:02.175Z,23.67
2019-04-05T22:08:31.533Z,22.20
2019-04-05T22:11:01.124Z,19.93
2019-04-05T22:13:30.439Z,23.33
2019-04-05T22:15:59.741Z,21.90
2019-04-05T22:18:29.079Z,21.70
2019-04-05T22:20:58.520Z,23.23
2019-04-05T22:23:27.812Z,22.20
2019-04-05T22:25:57.129Z,23.50
2019-04-05T22:28:26.513Z,20.77
2019-04-05T22:30:55.921Z,23.43
2019-04-05T22:33:25.204Z,22.43
2019-04-05T22:35:54.514Z,22.33
2019-04-05T22:38:24.316Z,22.67
2019-04-05T22:40:53.624Z,21.90
2019-04-05T22:43:23.219Z,23.77
2019-04-05T22:45:52.537Z,23.63
2019-04-05T22:48:21.792Z,22.33
2019-04-05T22:50:51.115Z,21.77
2019-04-05T22:53:20.398Z,23.53
2019-04-05T22:55:49.844Z,24.00
2019-04-05T22:58:19.425Z,23.20
2019-04-05T23:00:48.694Z,27.70
2019-04-05T23:03:18.043Z,25.20
2019-04-05T23:05:47.335Z,24.20
2019-04-05T23:08:16.707Z,23.37
2019-04-05T23:10:46.046Z,24.80
2019-04-05T23:13:15.513Z,23.73
2019-04-05T23:15:44.775Z,25.83
2019-04-05T23:18:14.071Z,26.57
2019-04-05T23:20:43.451Z,25.87
2019-04-05T23:23:12.731Z,23.53
2019-04-05T23:25:42.037Z,26.13
2019-04-05T23:28:11.469Z,25.60
2019-04-05T23:30:40.741Z,23.30
2019-04-05T23:33:10.081Z,25.10
2019-04-05T23:35:39.494Z,24.13
2019-04-05T23:38:08.764Z,21.77
2019-04-05T23:40:40.339Z,21.63
2019-04-05T23:43:09.648Z,22.93
2019-04-05T23:45:38.900Z,21.67
2019-04-05T23:48:08.244Z,23.87
2019-04-05T23:50:37.536Z,23.70
2019-04-05T23:53:06.923Z,28.10
2019-04-05T23:55:36.227Z,22.30
2019-04-05T23:58:05.661Z,21.57
